createdAt,value
2023-03-21T00:01:56.264Z,90.58
2023-03-21T00:04:33.163Z,90.73
2023-03-21T00:07:06.787Z,90.62
2023-03-21T00:09:35.509Z,90.67
2023-03-21T00:12:07.528Z,90.58
2023-03-21T00:14:38.012Z,90.11
2023-03-21T00:17:10.936Z,90.11
2023-03-21T00:19:41.386Z,89.79
2023-03-21T00:22:10.348Z,90.09
2023-03-21T00:24:39.378Z,89.77
2023-03-21T00:27:34.598Z,89.63
2023-03-21T00:29:57.361Z,89.31
2023-03-21T00:32:27.812Z,89.47
2023-03-21T00:35:16.515Z,89.55
2023-03-21T00:37:46.850Z,90.01
2023-03-21T00:40:26.563Z,90.04
2023-03-21T00:42:57.951Z,90.36
2023-03-21T00:45:28.236Z,90.22
2023-03-21T00:47:58.542Z,90.93
2023-03-21T00:50:27.629Z,90.77
2023-03-21T00:52:56.896Z,91.68
2023-03-21T00:55:27.195Z,92.17
2023-03-21T00:58:01.824Z,92.80
2023-03-21T01:00:33.146Z,93.81
2023-03-21T01:03:17.494Z,93.60
2023-03-21T01:06:05.687Z,94.55
2023-03-21T01:08:51.060Z,93.50
2023-03-21T01:11:25.167Z,94.06
2023-03-21T01:14:14.649Z,94.73
2023-03-21T01:16:43.924Z,94.63
2023-03-21T01:19:25.525Z,95.24
2023-03-21T01:21:56.742Z,94.93
2023-03-21T01:24:26.668Z,94.49
2023-03-21T01:26:55.448Z,94.60
2023-03-21T01:29:24.390Z,94.65
2023-03-21T01:31:53.277Z,94.70
2023-03-21T01:34:23.406Z,94.76
2023-03-21T01:36:52.519Z,94.41
2023-03-21T01:39:23.213Z,93.79
2023-03-21T01:41:52.713Z,94.27
2023-03-21T01:44:27.304Z,94.17
2023-03-21T01:47:11.077Z,93.85
2023-03-21T01:49:46.995Z,93.03
2023-03-21T01:52:37.840Z,92.68
2023-03-21T01:55:16.215Z,93.18
2023-03-21T01:58:05.816Z,92.56
2023-03-21T02:00:56.950Z,92.22
2023-03-21T02:03:38.459Z,92.00
2023-03-21T02:06:41.477Z,90.60
2023-03-21T02:09:24.718Z,90.85
2023-03-21T02:11:56.762Z,90.99
2023-03-21T02:14:33.623Z,90.93
2023-03-21T02:17:19.891Z,90.66
2023-03-21T02:20:51.150Z,90.87
2023-03-21T02:24:02.310Z,90.67
2023-03-21T02:27:07.776Z,90.19
2023-03-21T02:30:49.181Z,90.04
2023-03-21T02:34:42.484Z,89.02
2023-03-21T02:37:37.663Z,88.03
2023-03-21T02:40:16.732Z,85.64
2023-03-21T02:43:05.632Z,85.39
2023-03-21T02:45:46.878Z,85.64
2023-03-21T02:48:31.153Z,85.01
2023-03-21T02:51:07.710Z,84.88
2023-03-21T02:53:45.019Z,84.27
2023-03-21T02:56:14.280Z,84.60
2023-03-21T02:58:49.786Z,84.20
2023-03-21T03:01:18.612Z,84.14
2023-03-21T03:03:50.424Z,83.95
2023-03-21T03:06:27.930Z,84.67
2023-03-21T03:09:25.552Z,85.05
2023-03-21T03:12:10.720Z,85.12
2023-03-21T03:15:02.973Z,85.01
2023-03-21T03:17:52.896Z,84.89
2023-03-21T03:20:37.446Z,85.26
2023-03-21T03:23:19.793Z,84.98
2023-03-21T03:25:58.026Z,84.82
2023-03-21T03:28:34.392Z,85.06
2023-03-21T03:31:09.692Z,84.65
2023-03-21T03:33:59.322Z,84.70
2023-03-21T03:36:39.370Z,85.56
2023-03-21T03:39:18.013Z,85.00
2023-03-21T03:42:12.482Z,85.91
2023-03-21T03:44:47.568Z,85.62
2023-03-21T03:47:32.731Z,85.19
2023-03-21T03:50:13.389Z,85.42
2023-03-21T03:52:56.107Z,85.61
2023-03-21T03:55:34.502Z,85.36
2023-03-21T03:58:21.735Z,85.97
2023-03-21T04:00:52.325Z,85.60
2023-03-21T04:03:21.476Z,85.55
2023-03-21T04:05:50.831Z,85.27
2023-03-21T04:08:20.140Z,86.90
2023-03-21T04:10:54.467Z,86.60
2023-03-21T04:13:25.945Z,85.93
2023-03-21T04:16:05.292Z,85.71
2023-03-21T04:18:34.169Z,86.14
2023-03-21T04:21:03.667Z,86.26
2023-03-21T04:23:33.302Z,86.89
2023-03-21T04:26:02.018Z,86.55
2023-03-21T04:28:39.885Z,86.31
2023-03-21T04:31:28.688Z,86.35
2023-03-21T04:34:09.967Z,86.53
2023-03-21T04:36:44.725Z,86.16
2023-03-21T04:39:14.078Z,85.87
2023-03-21T04:41:46.829Z,85.96
2023-03-21T04:44:19.040Z,85.90
2023-03-21T04:46:48.563Z,85.85
2023-03-21T04:49:18.564Z,86.95
2023-03-21T04:51:47.388Z,87.15
2023-03-21T04:54:21.111Z,86.50
2023-03-21T04:56:52.086Z,86.26
2023-03-21T04:59:22.292Z,87.13
2023-03-21T05:01:52.011Z,87.23
2023-03-21T05:04:22.843Z,87.14
2023-03-21T05:06:54.248Z,87.31
2023-03-21T05:09:23.328Z,87.52
2023-03-21T05:11:55.066Z,86.74
2023-03-21T05:14:28.578Z,86.03
2023-03-21T05:16:57.953Z,87.17
2023-03-21T05:19:35.213Z,86.37
2023-03-21T05:22:09.261Z,86.42
2023-03-21T05:24:42.075Z,85.96
2023-03-21T05:27:34.323Z,85.75
2023-03-21T05:30:10.763Z,85.37
2023-03-21T05:32:39.806Z,85.52
2023-03-21T05:35:12.498Z,85.19
2023-03-21T05:37:43.137Z,85.71
2023-03-21T05:40:13.867Z,85.23
2023-03-21T05:42:47.182Z,85.17
2023-03-21T05:45:24.732Z,85.23
2023-03-21T05:47:53.854Z,85.36
2023-03-21T05:50:28.161Z,85.37
2023-03-21T05:53:13.937Z,85.53
2023-03-21T05:55:48.888Z,85.65
2023-03-21T05:58:40.709Z,85.60
2023-03-21T06:01:12.789Z,86.24
2023-03-21T06:03:46.449Z,85.79
2023-03-21T06:06:19.922Z,86.00
2023-03-21T06:09:06.882Z,85.94
2023-03-21T06:11:38.990Z,86.30
2023-03-21T06:14:27.029Z,85.74
2023-03-21T06:17:16.866Z,85.22
2023-03-21T06:19:58.438Z,84.63
2023-03-21T06:22:32.228Z,84.83
2023-03-21T06:25:02.804Z,84.15
2023-03-21T06:27:33.622Z,83.79
2023-03-21T06:30:02.524Z,84.29
2023-03-21T06:32:39.255Z,83.76
2023-03-21T06:35:19.946Z,83.54
2023-03-21T06:37:49.557Z,83.37
2023-03-21T06:40:26.886Z,83.18
2023-03-21T06:43:27.851Z,82.60
2023-03-21T06:45:56.638Z,81.84
2023-03-21T06:48:28.031Z,83.05
2023-03-21T06:50:57.652Z,82.18
2023-03-21T06:53:30.228Z,83.86
2023-03-21T06:56:17.732Z,84.47
2023-03-21T06:58:47.763Z,83.32
2023-03-21T07:01:31.713Z,82.66
2023-03-21T07:04:09.174Z,83.63
2023-03-21T07:06:38.410Z,83.22
2023-03-21T07:09:07.999Z,84.38
2023-03-21T07:11:38.637Z,84.09
2023-03-21T07:14:10.293Z,83.66
2023-03-21T07:16:40.191Z,83.30
2023-03-21T07:19:10.667Z,82.67
2023-03-21T07:21:39.417Z,83.50
2023-03-21T07:24:08.957Z,84.26
2023-03-21T07:26:37.772Z,84.45
2023-03-21T07:29:07.658Z,83.94
2023-03-21T07:31:36.840Z,83.88
2023-03-21T07:34:06.011Z,83.02
2023-03-21T07:36:37.010Z,82.11
2023-03-21T07:39:06.409Z,82.32
2023-03-21T07:41:35.369Z,82.07
2023-03-21T07:44:15.697Z,83.79
2023-03-21T07:46:44.441Z,83.51
2023-03-21T07:49:13.226Z,82.94
2023-03-21T07:51:43.707Z,83.23
2023-03-21T07:54:13.529Z,83.93
2023-03-21T07:56:42.585Z,82.08
2023-03-21T07:59:11.306Z,82.85
2023-03-21T08:01:40.207Z,82.34
2023-03-21T08:04:09.010Z,80.36
2023-03-21T08:06:37.797Z,79.58
2023-03-21T08:09:07.974Z,80.21
2023-03-21T08:11:36.766Z,79.62
2023-03-21T08:14:05.512Z,79.75
2023-03-21T08:16:34.283Z,79.50
2023-03-21T08:19:03.101Z,79.94
2023-03-21T08:21:31.846Z,78.12
2023-03-21T08:24:00.527Z,77.91
2023-03-21T08:26:32.524Z,77.12
2023-03-21T08:29:01.349Z,77.95
2023-03-21T08:31:30.056Z,78.07
2023-03-21T08:33:58.944Z,79.42
2023-03-21T08:36:27.671Z,79.30
2023-03-21T08:38:57.250Z,78.73
2023-03-21T08:41:26.473Z,77.72
2023-03-21T08:43:56.838Z,78.14
2023-03-21T08:46:25.770Z,77.26
2023-03-21T08:48:57.521Z,77.10
2023-03-21T08:51:26.258Z,77.00
2023-03-21T08:53:54.994Z,79.26
2023-03-21T08:56:23.656Z,76.35
2023-03-21T08:58:52.366Z,76.13
2023-03-21T09:01:22.409Z,77.96
2023-03-21T09:03:51.135Z,77.84
2023-03-21T09:06:19.831Z,78.03
2023-03-21T09:08:48.473Z,77.88
2023-03-21T09:11:17.222Z,73.48
2023-03-21T09:13:46.209Z,73.52
2023-03-21T09:16:14.995Z,75.38
2023-03-21T09:18:49.633Z,77.46
2023-03-21T09:21:20.454Z,77.65
2023-03-21T09:23:52.811Z,75.97
2023-03-21T09:26:21.782Z,74.58
2023-03-21T09:28:51.308Z,74.80
2023-03-21T09:31:22.999Z,71.02
2023-03-21T09:33:56.001Z,73.26
2023-03-21T09:36:27.296Z,72.18
2023-03-21T09:38:57.061Z,73.32
2023-03-21T09:41:52.942Z,71.50
2023-03-21T09:44:41.001Z,71.62
2023-03-21T09:47:22.284Z,72.17
2023-03-21T09:50:13.153Z,70.91
2023-03-21T09:52:49.772Z,72.19
2023-03-21T09:55:22.505Z,73.70
2023-03-21T09:58:04.470Z,72.02
2023-03-21T10:00:42.070Z,71.94
2023-03-21T10:03:24.552Z,73.35
2023-03-21T10:05:58.743Z,73.16
2023-03-21T10:08:36.530Z,72.10
2023-03-21T10:11:17.011Z,72.44
2023-03-21T10:13:52.414Z,72.54
2023-03-21T10:16:29.228Z,72.14
2023-03-21T10:18:59.559Z,71.29
2023-03-21T10:21:58.453Z,72.67
2023-03-21T10:24:25.071Z,71.42
2023-03-21T10:26:55.989Z,70.59
2023-03-21T10:29:31.477Z,68.12
2023-03-21T10:32:01.697Z,68.84
2023-03-21T10:34:39.257Z,70.72
2023-03-21T10:37:16.893Z,69.51
2023-03-21T10:39:50.304Z,69.45
2023-03-21T10:42:24.881Z,68.51
2023-03-21T10:44:57.444Z,68.20
2023-03-21T10:47:29.423Z,69.35
2023-03-21T10:50:08.883Z,68.82
2023-03-21T10:52:46.365Z,66.25
2023-03-21T10:55:26.435Z,68.19
2023-03-21T10:58:00.656Z,67.08
2023-03-21T11:00:36.989Z,66.09
2023-03-21T11:03:07.172Z,66.29
2023-03-21T11:05:40.907Z,66.74
2023-03-21T11:08:16.487Z,66.69
2023-03-21T11:10:56.468Z,67.07
2023-03-21T11:13:28.990Z,67.57
2023-03-21T11:16:08.054Z,67.11
2023-03-21T11:18:43.546Z,66.81
2023-03-21T11:21:15.616Z,67.30
2023-03-21T11:23:49.649Z,68.69
2023-03-21T11:26:24.372Z,68.36
2023-03-21T11:28:54.074Z,68.94
2023-03-21T11:31:25.060Z,68.96
2023-03-21T11:33:57.148Z,66.58
2023-03-21T11:36:35.228Z,67.45
2023-03-21T11:39:27.736Z,68.04
2023-03-21T11:41:56.626Z,67.01
2023-03-21T11:44:33.662Z,67.15
2023-03-21T11:47:03.490Z,67.41
2023-03-21T11:49:32.810Z,68.12
2023-03-21T11:52:24.714Z,68.60
2023-03-21T11:55:20.305Z,66.45
2023-03-21T11:58:14.364Z,65.45
2023-03-21T12:00:54.836Z,66.42
2023-03-21T12:04:09.828Z,66.52
2023-03-21T12:06:44.644Z,65.10
2023-03-21T12:09:37.710Z,63.56
2023-03-21T12:12:38.399Z,61.82
2023-03-21T12:15:19.518Z,61.94
2023-03-21T12:18:01.454Z,62.22
2023-03-21T12:20:45.751Z,62.69
2023-03-21T12:23:53.412Z,62.85
2023-03-21T12:26:28.381Z,63.03
2023-03-21T12:29:20.944Z,63.66
2023-03-21T12:32:11.502Z,63.16
2023-03-21T12:35:28.931Z,63.00
2023-03-21T12:38:41.278Z,63.54
2023-03-21T12:41:25.633Z,63.87
2023-03-21T12:44:03.627Z,63.15
2023-03-21T12:46:42.589Z,62.97
2023-03-21T12:49:19.851Z,62.38
2023-03-21T12:51:53.124Z,62.16
2023-03-21T12:54:32.899Z,62.05
2023-03-21T12:57:10.375Z,63.53
2023-03-21T12:59:48.258Z,62.68
2023-03-21T13:02:26.684Z,62.29
2023-03-21T13:05:06.429Z,61.86
2023-03-21T13:07:43.778Z,64.26
2023-03-21T13:10:21.017Z,63.65
2023-03-21T13:13:17.388Z,62.88
2023-03-21T13:16:14.159Z,62.04
2023-03-21T13:19:06.711Z,62.01
2023-03-21T13:21:52.261Z,61.48
2023-03-21T13:24:33.491Z,61.36
2023-03-21T13:27:07.555Z,62.27
2023-03-21T13:29:47.550Z,61.99
2023-03-21T13:32:29.658Z,61.69
2023-03-21T13:35:01.552Z,61.04
2023-03-21T13:37:43.290Z,61.34
2023-03-21T13:40:26.179Z,61.49
2023-03-21T13:42:59.288Z,60.89
2023-03-21T13:45:33.327Z,60.59
2023-03-21T13:48:07.557Z,60.32
2023-03-21T13:50:52.962Z,59.50
2023-03-21T13:53:32.676Z,59.41
2023-03-21T13:56:24.893Z,60.00
2023-03-21T13:59:05.398Z,59.20
2023-03-21T14:02:02.009Z,58.95
2023-03-21T14:04:42.096Z,59.40
2023-03-21T14:07:24.683Z,59.58
2023-03-21T14:09:57.405Z,59.05
2023-03-21T14:12:29.881Z,59.28
2023-03-21T14:15:16.269Z,59.92
2023-03-21T14:17:54.446Z,59.93
2023-03-21T14:20:28.992Z,59.80
2023-03-21T14:22:59.001Z,60.05
2023-03-21T14:25:41.075Z,60.55
2023-03-21T14:28:19.394Z,59.82
2023-03-21T14:30:55.172Z,60.02
2023-03-21T14:33:31.328Z,60.07
2023-03-21T14:36:08.984Z,59.51
2023-03-21T14:38:40.887Z,60.23
2023-03-21T14:41:24.502Z,59.67
2023-03-21T14:44:30.278Z,58.89
2023-03-21T14:47:04.762Z,59.72
2023-03-21T14:49:36.142Z,59.39
2023-03-21T14:52:12.532Z,58.51
2023-03-21T14:54:42.744Z,58.92
2023-03-21T14:57:17.153Z,58.99
2023-03-21T14:59:49.957Z,59.31
2023-03-21T15:02:23.945Z,59.22
2023-03-21T15:04:57.625Z,59.99
2023-03-21T15:07:30.629Z,59.87
2023-03-21T15:10:05.256Z,60.14
2023-03-21T15:12:35.050Z,60.28
2023-03-21T15:15:05.882Z,59.99
2023-03-21T15:17:34.906Z,60.19
2023-03-21T15:20:05.887Z,60.12
2023-03-21T15:22:40.887Z,59.88
2023-03-21T15:25:18.505Z,59.64
2023-03-21T15:27:47.521Z,59.99
2023-03-21T15:30:28.015Z,60.43
2023-03-21T15:32:58.053Z,60.44
2023-03-21T15:35:34.685Z,60.33
2023-03-21T15:38:06.738Z,60.49
2023-03-21T15:40:37.913Z,61.03
2023-03-21T15:43:14.512Z,60.73
2023-03-21T15:45:50.524Z,60.20
2023-03-21T15:48:26.749Z,60.69
2023-03-21T15:51:03.862Z,60.66
2023-03-21T15:53:38.537Z,60.30
2023-03-21T15:56:16.127Z,60.36
2023-03-21T15:58:49.093Z,61.33
2023-03-21T16:01:22.118Z,61.35
2023-03-21T16:03:58.615Z,61.95
2023-03-21T16:06:34.185Z,62.27
2023-03-21T16:09:22.160Z,63.05
2023-03-21T16:11:54.131Z,62.92
2023-03-21T16:14:24.814Z,64.19
2023-03-21T16:16:53.917Z,64.50
2023-03-21T16:19:23.373Z,64.83
2023-03-21T16:21:53.886Z,65.30
2023-03-21T16:24:24.150Z,65.80
2023-03-21T16:26:55.166Z,67.44
2023-03-21T16:29:23.869Z,67.26
2023-03-21T16:31:53.310Z,67.19
2023-03-21T16:34:22.140Z,67.54
2023-03-21T16:36:50.952Z,67.52
2023-03-21T16:39:22.531Z,68.64
2023-03-21T16:41:52.647Z,68.76
2023-03-21T16:44:22.478Z,68.25
2023-03-21T16:46:51.324Z,69.84
2023-03-21T16:49:23.965Z,69.21
2023-03-21T16:51:53.757Z,70.40
2023-03-21T16:54:23.099Z,70.99
2023-03-21T16:56:56.486Z,70.48
2023-03-21T16:59:25.373Z,70.53
2023-03-21T17:01:54.046Z,71.27
2023-03-21T17:04:24.911Z,72.03
2023-03-21T17:06:55.544Z,72.55
2023-03-21T17:09:28.058Z,72.11
2023-03-21T17:11:59.437Z,72.39
2023-03-21T17:14:32.434Z,71.91
2023-03-21T17:17:01.320Z,72.88
2023-03-21T17:19:31.084Z,72.62
2023-03-21T17:21:59.883Z,72.49
2023-03-21T17:24:29.872Z,72.37
2023-03-21T17:27:02.954Z,72.76
2023-03-21T17:29:33.428Z,73.33
2023-03-21T17:32:08.213Z,73.95
2023-03-21T17:34:37.025Z,73.78
2023-03-21T17:37:10.965Z,73.33
2023-03-21T17:39:43.042Z,73.79
2023-03-21T17:42:20.634Z,73.79
2023-03-21T17:44:51.124Z,74.41
2023-03-21T17:47:25.513Z,74.64
2023-03-21T17:49:54.479Z,75.25
2023-03-21T17:52:24.724Z,75.41
2023-03-21T17:54:53.818Z,75.03
2023-03-21T17:57:25.716Z,74.58
2023-03-21T17:59:57.660Z,75.69
2023-03-21T18:02:28.111Z,76.58
2023-03-21T18:04:59.432Z,77.47
2023-03-21T18:08:05.941Z,77.50
2023-03-21T18:10:24.599Z,78.04
2023-03-21T18:12:57.128Z,78.12
2023-03-21T18:15:30.319Z,77.53
2023-03-21T18:18:04.741Z,76.89
2023-03-21T18:23:23.525Z,77.65
2023-03-21T18:25:55.876Z,77.28
2023-03-21T18:28:26.963Z,77.47
2023-03-21T18:31:17.952Z,78.09
2023-03-21T18:33:45.470Z,78.95
2023-03-21T18:36:24.052Z,79.64
2023-03-21T18:38:55.161Z,79.95
2023-03-21T18:41:23.961Z,79.72
2023-03-21T18:44:11.794Z,80.12
2023-03-21T18:46:47.303Z,80.44
2023-03-21T18:52:09.106Z,80.70
2023-03-21T18:54:41.399Z,80.78
2023-03-21T18:57:35.021Z,80.97
2023-03-21T19:00:02.074Z,80.99
2023-03-21T19:02:31.108Z,81.00
2023-03-21T19:04:59.918Z,80.68
2023-03-21T19:07:28.811Z,79.44
2023-03-21T19:10:16.324Z,79.21
2023-03-21T19:12:46.284Z,80.30
2023-03-21T19:15:19.673Z,80.57
2023-03-21T19:29:12.231Z,79.42
2023-03-21T19:31:58.938Z,79.73
2023-03-21T19:34:53.488Z,80.38
2023-03-21T19:37:27.325Z,80.28
2023-03-21T19:39:56.729Z,80.41
2023-03-21T19:45:29.328Z,81.34
2023-03-21T19:48:19.007Z,81.86
2023-03-21T19:51:25.751Z,81.29
2023-03-21T19:53:49.886Z,81.93
2023-03-21T19:56:27.797Z,81.36
2023-03-21T20:02:08.886Z,81.75
2023-03-21T20:04:59.601Z,82.45
2023-03-21T20:07:33.926Z,82.32
2023-03-21T20:10:05.735Z,82.47
2023-03-21T20:12:36.717Z,82.22
2023-03-21T20:15:16.964Z,81.27
2023-03-21T20:17:52.179Z,81.44
2023-03-21T20:20:34.525Z,81.16
2023-03-21T20:23:08.993Z,82.06
2023-03-21T20:25:43.975Z,82.11
2023-03-21T20:28:24.633Z,82.43
2023-03-21T20:30:57.033Z,82.54
2023-03-21T20:33:34.134Z,82.45
2023-03-21T20:36:38.692Z,82.78
2023-03-21T20:38:58.406Z,83.11
2023-03-21T20:41:27.885Z,82.86
2023-03-21T20:44:39.492Z,82.39
2023-03-21T20:46:49.729Z,82.81
2023-03-21T20:49:19.803Z,82.24
2023-03-21T20:54:39.304Z,82.95
2023-03-21T20:57:07.997Z,83.27
2023-03-21T20:59:36.778Z,82.99
2023-03-21T21:02:06.216Z,82.77
2023-03-21T21:04:52.493Z,82.93
2023-03-21T21:07:27.914Z,83.08
2023-03-21T21:09:57.150Z,83.48
2023-03-21T21:12:27.623Z,82.72
2023-03-21T21:14:56.808Z,83.68
2023-03-21T21:18:04.011Z,83.75
2023-03-21T21:20:17.735Z,82.90
2023-03-21T21:22:59.694Z,82.51
2023-03-21T21:25:30.700Z,82.49
2023-03-21T21:28:01.697Z,82.85
2023-03-21T21:30:31.981Z,82.58
2023-03-21T21:33:00.903Z,82.69
2023-03-21T21:35:29.751Z,83.13
2023-03-21T21:37:59.931Z,83.25
2023-03-21T21:40:29.741Z,82.79
2023-03-21T21:43:03.477Z,82.34
2023-03-21T21:45:32.468Z,82.34
2023-03-21T21:48:01.343Z,82.19
2023-03-21T21:50:30.056Z,81.87
2023-03-21T21:53:03.892Z,81.96
2023-03-21T21:55:35.036Z,81.90
2023-03-21T21:58:04.875Z,81.75
2023-03-21T22:00:34.544Z,81.71
2023-03-21T22:03:03.673Z,81.45
2023-03-21T22:05:32.724Z,81.28
2023-03-21T22:08:05.411Z,81.04
2023-03-21T22:10:34.707Z,81.55
2023-03-21T22:13:03.466Z,81.45
2023-03-21T22:15:33.344Z,81.71
2023-03-21T22:18:02.098Z,82.25
2023-03-21T22:20:30.836Z,82.68
2023-03-21T22:23:01.062Z,83.10
2023-03-21T22:25:33.120Z,83.62
2023-03-21T22:28:02.291Z,83.73
2023-03-21T22:30:31.643Z,84.90
2023-03-21T22:33:09.329Z,84.90
2023-03-21T22:35:38.874Z,85.18
2023-03-21T22:38:07.711Z,85.44
2023-03-21T22:40:38.262Z,85.38
2023-03-21T22:43:08.851Z,85.75
2023-03-21T22:45:37.610Z,86.08
2023-03-21T22:48:06.941Z,86.52
2023-03-21T22:50:35.688Z,86.64
2023-03-21T22:53:06.452Z,86.67
2023-03-21T22:55:36.655Z,86.34
2023-03-21T22:58:05.579Z,86.65
2023-03-21T23:00:34.681Z,87.39
2023-03-21T23:03:03.396Z,86.76
2023-03-21T23:05:32.221Z,86.83
2023-03-21T23:08:00.991Z,87.32
2023-03-21T23:10:29.717Z,87.34
2023-03-21T23:12:59.908Z,87.14
2023-03-21T23:15:28.649Z,87.51
2023-03-21T23:17:57.342Z,87.40
2023-03-21T23:20:26.036Z,88.38
2023-03-21T23:22:54.653Z,88.19
2023-03-21T23:25:24.941Z,87.99
2023-03-21T23:27:53.609Z,87.86
2023-03-21T23:30:24.360Z,87.38
2023-03-21T23:32:53.309Z,87.94
2023-03-21T23:35:21.959Z,89.01
2023-03-21T23:37:52.663Z,88.32
2023-03-21T23:40:22.308Z,88.39
2023-03-21T23:42:52.172Z,89.42
2023-03-21T23:45:22.205Z,89.56
2023-03-21T23:47:50.967Z,89.63
2023-03-21T23:50:19.849Z,90.51
2023-03-21T23:52:48.863Z,89.40
2023-03-21T23:55:17.670Z,89.15
2023-03-21T23:57:46.473Z,89.20
